SJV801 WILL-WIII
Flight info
| Callsign | SJV801 |
|---|---|
| Flight time | 0h 29m |
| Altitude | 15000 |
| Route | CKG |
| Aircraft | A320/M-SDE3FGHIRWY/LB1 |
Departure
| Time | 2026-04-20 16:16 |
|---|---|
| Airport | Radin Inten II International Airport (WILL) |
Arrival
| Time | 2026-04-20 16:45 |
|---|---|
| Airport | Soekarno-Hatta International Airport (WIII) |
| Time | Latitude | Longitude | Altitude | Speed | Heading |
|---|---|---|---|---|---|
| 2026-04-20 16:09 | -5.24479 | 105.18083 | 271 ft | 13 kts | 95° |
| 2026-04-20 16:09 | -5.24525 | 105.18141 | 271 ft | 10 kts | 140° |
| 2026-04-20 16:10 | -5.24584 | 105.18191 | 271 ft | 12 kts | 139° |
| 2026-04-20 16:10 | -5.24654 | 105.18250 | 272 ft | 14 kts | 140° |
| 2026-04-20 16:10 | -5.24736 | 105.18319 | 272 ft | 17 kts | 140° |
| 2026-04-20 16:10 | -5.24832 | 105.18402 | 273 ft | 19 kts | 139° |
| 2026-04-20 16:11 | -5.24938 | 105.18491 | 274 ft | 21 kts | 139° |
| 2026-04-20 16:11 | -5.25058 | 105.18594 | 273 ft | 24 kts | 140° |
| 2026-04-20 16:11 | -5.25173 | 105.18691 | 275 ft | 14 kts | 140° |
| 2026-04-20 16:11 | -5.25258 | 105.18762 | 275 ft | 18 kts | 140° |
| 2026-04-20 16:12 | -5.25361 | 105.18851 | 271 ft | 21 kts | 139° |
| 2026-04-20 16:12 | -5.25448 | 105.18924 | 274 ft | 15 kts | 140° |
| 2026-04-20 16:12 | -5.25534 | 105.18997 | 271 ft | 16 kts | 140° |
| 2026-04-20 16:12 | -5.25583 | 105.19050 | 271 ft | 8 kts | 118° |
| 2026-04-20 16:13 | -5.25608 | 105.19097 | 271 ft | 8 kts | 135° |
| 2026-04-20 16:13 | -5.25638 | 105.19084 | 274 ft | 4 kts | 270° |
| 2026-04-20 16:13 | -5.25629 | 105.19078 | 273 ft | 0 kts | 318° |
| 2026-04-20 16:16 | -5.25524 | 105.18986 | 271 ft | 56 kts | 320° |
| 2026-04-20 16:16 | -5.25048 | 105.18582 | 275 ft | 120 kts | 320° |
| 2026-04-20 16:16 | -5.24285 | 105.17936 | 318 ft | 163 kts | 319° |
| 2026-04-20 16:16 | -5.23429 | 105.17174 | 908 ft | 165 kts | 319° |
| 2026-04-20 16:17 | -5.22550 | 105.16415 | 1582 ft | 168 kts | 319° |
| 2026-04-20 16:17 | -5.21617 | 105.15825 | 2191 ft | 173 kts | 346° |
| 2026-04-20 16:17 | -5.20365 | 105.16063 | 2450 ft | 199 kts | 37° |
| 2026-04-20 16:17 | -5.19547 | 105.17239 | 2779 ft | 220 kts | 66° |
| 2026-04-20 16:18 | -5.18995 | 105.18742 | 3393 ft | 234 kts | 71° |
| 2026-04-20 16:18 | -5.18483 | 105.20312 | 4229 ft | 240 kts | 71° |
| 2026-04-20 16:18 | -5.17941 | 105.21885 | 5200 ft | 239 kts | 69° |
| 2026-04-20 16:18 | -5.17342 | 105.23455 | 6087 ft | 242 kts | 68° |
| 2026-04-20 16:19 | -5.16708 | 105.25026 | 6976 ft | 245 kts | 68° |
| 2026-04-20 16:19 | -5.16053 | 105.26621 | 7829 ft | 249 kts | 68° |
| 2026-04-20 16:19 | -5.15388 | 105.28232 | 8727 ft | 250 kts | 68° |
| 2026-04-20 16:19 | -5.14716 | 105.29851 | 9562 ft | 256 kts | 68° |
| 2026-04-20 16:20 | -5.13998 | 105.31575 | 9941 ft | 279 kts | 68° |
| 2026-04-20 16:20 | -5.13400 | 105.33491 | 10294 ft | 300 kts | 84° |
| 2026-04-20 16:20 | -5.13631 | 105.35635 | 10544 ft | 324 kts | 110° |
| 2026-04-20 16:20 | -5.14921 | 105.37547 | 10814 ft | 344 kts | 139° |
| 2026-04-20 16:21 | -5.17030 | 105.38739 | 11392 ft | 353 kts | 157° |
| 2026-04-20 16:21 | -5.19330 | 105.39635 | 12099 ft | 357 kts | 160° |
| 2026-04-20 16:21 | -5.21683 | 105.40473 | 12809 ft | 361 kts | 161° |
| 2026-04-20 16:21 | -5.24065 | 105.41293 | 13499 ft | 364 kts | 160° |
| 2026-04-20 16:22 | -5.26419 | 105.42279 | 14135 ft | 368 kts | 156° |
| 2026-04-20 16:22 | -5.28336 | 105.43158 | 14641 ft | 372 kts | 155° |
| 2026-04-20 16:22 | -5.30691 | 105.44260 | 14853 ft | 374 kts | 155° |
| 2026-04-20 16:22 | -5.33065 | 105.45390 | 14924 ft | 386 kts | 155° |
| 2026-04-20 16:23 | -5.35552 | 105.46583 | 14924 ft | 407 kts | 155° |
| 2026-04-20 16:23 | -5.38123 | 105.47816 | 14920 ft | 421 kts | 155° |
| 2026-04-20 16:23 | -5.40784 | 105.49089 | 14920 ft | 425 kts | 155° |
| 2026-04-20 16:23 | -5.43464 | 105.50367 | 14921 ft | 426 kts | 155° |
| 2026-04-20 16:24 | -5.46142 | 105.51643 | 14920 ft | 426 kts | 155° |
| 2026-04-20 16:24 | -5.48824 | 105.52919 | 14920 ft | 426 kts | 155° |
| 2026-04-20 16:24 | -5.51509 | 105.54194 | 14920 ft | 426 kts | 155° |
| 2026-04-20 16:24 | -5.54187 | 105.55466 | 14920 ft | 426 kts | 155° |
| 2026-04-20 16:25 | -5.55972 | 105.56314 | 14920 ft | 426 kts | 155° |
| 2026-04-20 16:25 | -5.58654 | 105.57590 | 14920 ft | 426 kts | 155° |
| 2026-04-20 16:25 | -5.61336 | 105.58866 | 14920 ft | 426 kts | 155° |
| 2026-04-20 16:25 | -5.64627 | 105.61056 | 14915 ft | 427 kts | 136° |
| 2026-04-20 16:26 | -5.65910 | 105.62551 | 14915 ft | 427 kts | 125° |
| 2026-04-20 16:26 | -5.67255 | 105.65196 | 14913 ft | 428 kts | 109° |
| 2026-04-20 16:26 | -5.67951 | 105.68105 | 14914 ft | 428 kts | 102° |
| 2026-04-20 16:26 | -5.68557 | 105.71031 | 14912 ft | 428 kts | 102° |
| 2026-04-20 16:27 | -5.69159 | 105.73965 | 14911 ft | 428 kts | 102° |
| 2026-04-20 16:27 | -5.69757 | 105.76875 | 14910 ft | 428 kts | 102° |
| 2026-04-20 16:27 | -5.70369 | 105.79827 | 14910 ft | 428 kts | 102° |
| 2026-04-20 16:27 | -5.70981 | 105.82748 | 14911 ft | 428 kts | 102° |
| 2026-04-20 16:28 | -5.71600 | 105.85672 | 14911 ft | 429 kts | 102° |
| 2026-04-20 16:28 | -5.72220 | 105.88605 | 14911 ft | 429 kts | 102° |
| 2026-04-20 16:28 | -5.72833 | 105.91535 | 14562 ft | 428 kts | 102° |
| 2026-04-20 16:28 | -5.73439 | 105.94448 | 14160 ft | 425 kts | 102° |
| 2026-04-20 16:29 | -5.74041 | 105.97339 | 13785 ft | 422 kts | 102° |
| 2026-04-20 16:29 | -5.74673 | 106.00208 | 13409 ft | 419 kts | 103° |
| 2026-04-20 16:29 | -5.75345 | 106.03044 | 13033 ft | 416 kts | 104° |
| 2026-04-20 16:29 | -5.76042 | 106.05863 | 12653 ft | 413 kts | 104° |
| 2026-04-20 16:30 | -5.76742 | 106.08652 | 12281 ft | 410 kts | 104° |
| 2026-04-20 16:30 | -5.77425 | 106.11393 | 11913 ft | 410 kts | 104° |
| 2026-04-20 16:30 | -5.78105 | 106.14169 | 11535 ft | 408 kts | 104° |
| 2026-04-20 16:30 | -5.78774 | 106.16935 | 11158 ft | 405 kts | 104° |
| 2026-04-20 16:31 | -5.79429 | 106.19674 | 10783 ft | 402 kts | 104° |
| 2026-04-20 16:31 | -5.80072 | 106.22372 | 10405 ft | 390 kts | 103° |
| 2026-04-20 16:31 | -5.80692 | 106.24974 | 10033 ft | 376 kts | 103° |
| 2026-04-20 16:31 | -5.81290 | 106.27477 | 9746 ft | 361 kts | 103° |
| 2026-04-20 16:32 | -5.81868 | 106.29884 | 9492 ft | 348 kts | 103° |
| 2026-04-20 16:32 | -5.82426 | 106.32207 | 9238 ft | 336 kts | 103° |
| 2026-04-20 16:32 | -5.82963 | 106.34452 | 8995 ft | 326 kts | 103° |
| 2026-04-20 16:32 | -5.83486 | 106.36641 | 8744 ft | 318 kts | 103° |
| 2026-04-20 16:33 | -5.83998 | 106.38777 | 8436 ft | 312 kts | 103° |
| 2026-04-20 16:33 | -5.84499 | 106.40858 | 8066 ft | 309 kts | 103° |
| 2026-04-20 16:33 | -5.85001 | 106.42946 | 7687 ft | 306 kts | 103° |
| 2026-04-20 16:33 | -5.85506 | 106.45044 | 7309 ft | 304 kts | 103° |
| 2026-04-20 16:34 | -5.85938 | 106.46840 | 6980 ft | 301 kts | 103° |
| 2026-04-20 16:34 | -5.86427 | 106.48879 | 6605 ft | 299 kts | 103° |
| 2026-04-20 16:34 | -5.86910 | 106.50901 | 6231 ft | 297 kts | 103° |
| 2026-04-20 16:34 | -5.87395 | 106.52914 | 5853 ft | 295 kts | 103° |
| 2026-04-20 16:35 | -5.87874 | 106.54907 | 5479 ft | 293 kts | 103° |
| 2026-04-20 16:35 | -5.88348 | 106.56886 | 5101 ft | 290 kts | 103° |
| 2026-04-20 16:35 | -5.88817 | 106.58854 | 4725 ft | 288 kts | 103° |
| 2026-04-20 16:35 | -5.89283 | 106.60805 | 4346 ft | 287 kts | 103° |
| 2026-04-20 16:36 | -5.89747 | 106.62744 | 3972 ft | 285 kts | 103° |
| 2026-04-20 16:36 | -5.90208 | 106.64669 | 3631 ft | 282 kts | 103° |
| 2026-04-20 16:36 | -5.90662 | 106.66564 | 3382 ft | 276 kts | 103° |
| 2026-04-20 16:36 | -5.91105 | 106.68416 | 3135 ft | 270 kts | 103° |
| 2026-04-20 16:37 | -5.91537 | 106.70224 | 3003 ft | 261 kts | 103° |
| 2026-04-20 16:37 | -5.91947 | 106.71944 | 3003 ft | 246 kts | 103° |
| 2026-04-20 16:37 | -5.92341 | 106.73587 | 3006 ft | 240 kts | 103° |
| 2026-04-20 16:37 | -5.92729 | 106.75213 | 3007 ft | 239 kts | 102° |
| 2026-04-20 16:38 | -5.93116 | 106.76839 | 3007 ft | 239 kts | 103° |
| 2026-04-20 16:38 | -5.93498 | 106.78440 | 3005 ft | 230 kts | 103° |
| 2026-04-20 16:38 | -5.93859 | 106.79949 | 3005 ft | 214 kts | 103° |
| 2026-04-20 16:38 | -5.94196 | 106.81356 | 3004 ft | 200 kts | 102° |
| 2026-04-20 16:39 | -5.94512 | 106.82686 | 3006 ft | 198 kts | 102° |
| 2026-04-20 16:39 | -5.94832 | 106.84023 | 3007 ft | 197 kts | 102° |
| 2026-04-20 16:39 | -5.95149 | 106.85347 | 3007 ft | 197 kts | 103° |
| 2026-04-20 16:39 | -5.95714 | 106.86590 | 3002 ft | 199 kts | 131° |
| 2026-04-20 16:40 | -5.96873 | 106.87335 | 3008 ft | 203 kts | 164° |
| 2026-04-20 16:40 | -5.98273 | 106.87304 | 3007 ft | 207 kts | 199° |
| 2026-04-20 16:40 | -5.99477 | 106.86503 | 3017 ft | 210 kts | 220° |
| 2026-04-20 16:40 | -6.00595 | 106.85554 | 3010 ft | 211 kts | 218° |
| 2026-04-20 16:41 | -6.01729 | 106.84624 | 3008 ft | 211 kts | 218° |
| 2026-04-20 16:41 | -6.02867 | 106.83695 | 3008 ft | 211 kts | 218° |
| 2026-04-20 16:41 | -6.04006 | 106.82764 | 3009 ft | 211 kts | 218° |
| 2026-04-20 16:41 | -6.04974 | 106.81667 | 2986 ft | 210 kts | 240° |
| 2026-04-20 16:42 | -6.05553 | 106.80330 | 2796 ft | 208 kts | 248° |
| 2026-04-20 16:42 | -6.06084 | 106.78980 | 2533 ft | 208 kts | 248° |
| 2026-04-20 16:42 | -6.06620 | 106.77630 | 2300 ft | 207 kts | 248° |
| 2026-04-20 16:42 | -6.07146 | 106.76311 | 2007 ft | 200 kts | 248° |
| 2026-04-20 16:43 | -6.07651 | 106.75044 | 1736 ft | 189 kts | 247° |
| 2026-04-20 16:43 | -6.08119 | 106.73870 | 1503 ft | 172 kts | 247° |
| 2026-04-20 16:43 | -6.08541 | 106.72812 | 1293 ft | 155 kts | 247° |
| 2026-04-20 16:43 | -6.08927 | 106.71845 | 1085 ft | 146 kts | 246° |
| 2026-04-20 16:44 | -6.09298 | 106.70915 | 896 ft | 142 kts | 246° |
| 2026-04-20 16:44 | -6.09663 | 106.70001 | 713 ft | 140 kts | 247° |
| 2026-04-20 16:44 | -6.10024 | 106.69096 | 519 ft | 139 kts | 247° |
| 2026-04-20 16:44 | -6.10378 | 106.68197 | 329 ft | 138 kts | 248° |
| 2026-04-20 16:45 | -6.10730 | 106.67318 | 167 ft | 137 kts | 248° |
| 2026-04-20 16:45 | -6.11085 | 106.66426 | 56 ft | 133 kts | 248° |
| 2026-04-20 16:45 | -6.11384 | 106.65665 | 35 ft | 96 kts | 248° |
| 2026-04-20 16:45 | -6.11568 | 106.65204 | 39 ft | 46 kts | 249° |
| 2026-04-20 16:46 | -6.11629 | 106.65043 | 39 ft | 14 kts | 248° |
| 2026-04-20 16:46 | -6.11670 | 106.64943 | 41 ft | 17 kts | 248° |
| 2026-04-20 16:46 | -6.11712 | 106.64844 | 41 ft | 15 kts | 242° |
| 2026-04-20 16:46 | -6.11776 | 106.64749 | 40 ft | 18 kts | 229° |
| 2026-04-20 16:47 | -6.11848 | 106.64681 | 39 ft | 15 kts | 219° |
| 2026-04-20 16:47 | -6.11927 | 106.64645 | 39 ft | 10 kts | 173° |
| 2026-04-20 16:47 | -6.11955 | 106.64710 | 38 ft | 13 kts | 76° |
| 2026-04-20 16:47 | -6.11924 | 106.64792 | 38 ft | 12 kts | 68° |
| 2026-04-20 16:48 | -6.11895 | 106.64865 | 38 ft | 10 kts | 68° |
| 2026-04-20 16:48 | -6.11868 | 106.64936 | 38 ft | 12 kts | 75° |
| 2026-04-20 16:48 | -6.11882 | 106.64986 | 37 ft | 0 kts | 136° |
| 2026-04-20 16:48 | -6.11891 | 106.64994 | 38 ft | 3 kts | 136° |
| 2026-04-20 16:49 | -6.11915 | 106.65019 | 36 ft | 4 kts | 130° |
| 2026-04-20 16:49 | -6.11932 | 106.65046 | 38 ft | 3 kts | 122° |
| 2026-04-20 16:49 | -6.11951 | 106.65065 | 38 ft | 3 kts | 141° |
| 2026-04-20 16:49 | -6.11971 | 106.65079 | 38 ft | 2 kts | 146° |
| 2026-04-20 16:50 | -6.11987 | 106.65089 | 38 ft | 3 kts | 146° |
| 2026-04-20 16:50 | -6.11998 | 106.65097 | 38 ft | 1 kts | 146° |
| 2026-04-20 16:50 | -6.12003 | 106.65100 | 35 ft | 0 kts | 146° |
| 2026-04-20 16:50 | -6.12008 | 106.65104 | 36 ft | 1 kts | 146° |
| 2026-04-20 16:51 | -6.12013 | 106.65107 | 37 ft | 0 kts | 146° |
| 2026-04-20 16:51 | -6.12014 | 106.65108 | 37 ft | 0 kts | 146° |